CPX790 Details

Departure: Kingsford Smith International Airport (YSSY)
Arrival: Changi International Airport (WSSS)
Route: KADOM A576 PKS/N0482F360 A576 AS A587 ONOXA/N0482F380 G326 BLI M635 SURGA


Current Weather Information
YSSY 232230Z 32009KT CAVOK 17/13 Q1024 NOSIG
WSSS 232230Z 16005KT 130V230 9999 FEW020TCU SCT350 29/25 Q1010 NOSIG